createdAt,value
2018-02-17T00:01:51.805Z,7.10
2018-02-17T00:04:19.948Z,7.10
2018-02-17T00:06:49.187Z,7.10
2018-02-17T00:09:18.068Z,7.00
2018-02-17T00:11:46.390Z,7.00
2018-02-17T00:14:14.952Z,6.90
2018-02-17T00:16:44.651Z,6.90
2018-02-17T00:19:13.956Z,6.90
2018-02-17T00:21:43.242Z,6.90
2018-02-17T00:24:11.740Z,6.90
2018-02-17T00:26:41.022Z,6.90
2018-02-17T00:29:11.043Z,6.90
2018-02-17T00:31:39.544Z,6.90
2018-02-17T00:34:08.527Z,6.90
2018-02-17T00:36:36.768Z,6.80
2018-02-17T00:39:05.293Z,6.90
2018-02-17T00:41:34.472Z,6.90
2018-02-17T00:44:02.754Z,6.80
2018-02-17T00:46:31.136Z,6.90
2018-02-17T00:48:59.417Z,6.80
2018-02-17T00:51:28.398Z,6.70
2018-02-17T00:53:56.880Z,6.70
2018-02-17T00:56:25.161Z,6.70
2018-02-17T00:58:55.065Z,6.70
2018-02-17T01:01:23.384Z,6.70
2018-02-17T01:03:52.325Z,6.80
2018-02-17T01:06:20.427Z,6.80
2018-02-17T01:08:48.788Z,6.80
2018-02-17T01:11:17.709Z,6.80
2018-02-17T01:13:46.691Z,6.80
2018-02-17T01:16:14.852Z,6.80
2018-02-17T01:18:44.773Z,6.90
2018-02-17T01:21:12.735Z,6.90
2018-02-17T01:23:41.055Z,6.80
2018-02-17T01:26:09.216Z,6.80
2018-02-17T01:28:38.276Z,6.80
2018-02-17T01:31:06.437Z,6.80
2018-02-17T01:33:34.939Z,6.80
2018-02-17T01:36:03.418Z,6.70
2018-02-17T01:38:31.900Z,6.70
2018-02-17T01:41:00.180Z,6.80
2018-02-17T01:43:28.640Z,6.80
2018-02-17T01:45:57.041Z,6.80
2018-02-17T01:48:25.502Z,6.80
2018-02-17T01:50:53.882Z,6.80
2018-02-17T01:53:22.163Z,6.90
2018-02-17T01:55:50.323Z,6.90
2018-02-17T01:58:18.724Z,6.90
2018-02-17T02:00:47.005Z,6.90
2018-02-17T02:03:15.964Z,6.80
2018-02-17T02:05:44.268Z,6.80
2018-02-17T02:08:12.445Z,6.80
2018-02-17T02:10:40.506Z,6.80
2018-02-17T02:13:08.646Z,6.90
2018-02-17T02:15:36.847Z,6.80
2018-02-17T02:18:05.027Z,6.80
2018-02-17T02:20:33.954Z,6.80
2018-02-17T02:23:02.088Z,6.70
2018-02-17T02:25:30.288Z,6.70
2018-02-17T02:27:59.368Z,6.60
2018-02-17T02:30:27.529Z,6.60
2018-02-17T02:32:55.511Z,6.60
2018-02-17T02:35:24.491Z,6.60
2018-02-17T02:37:52.775Z,6.60
2018-02-17T02:40:21.150Z,6.60
2018-02-17T02:42:49.630Z,6.60
2018-02-17T02:45:17.790Z,6.60
2018-02-17T02:47:46.050Z,6.60
2018-02-17T02:50:14.351Z,6.60
2018-02-17T02:52:42.531Z,6.60
2018-02-17T02:55:10.811Z,6.50
2018-02-17T02:57:39.292Z,6.40
2018-02-17T03:00:07.552Z,6.40
2018-02-17T03:02:35.792Z,6.40
2018-02-17T03:05:04.116Z,6.40
2018-02-17T03:07:32.471Z,6.50
2018-02-17T03:10:00.552Z,6.50
2018-02-17T03:12:28.751Z,6.50
2018-02-17T03:14:57.995Z,6.40
2018-02-17T03:17:26.173Z,6.40
2018-02-17T03:19:54.576Z,6.40
2018-02-17T03:22:23.472Z,6.50
2018-02-17T03:24:51.652Z,6.40
2018-02-17T03:27:19.935Z,6.40
2018-02-17T03:29:48.932Z,6.40
2018-02-17T03:32:17.812Z,6.40
2018-02-17T03:34:45.972Z,6.40
2018-02-17T03:37:14.053Z,6.50
2018-02-17T03:39:42.213Z,6.40
2018-02-17T03:42:10.494Z,6.40
2018-02-17T03:44:40.313Z,6.40
2018-02-17T03:47:08.473Z,6.40
2018-02-17T03:49:36.852Z,6.40
2018-02-17T03:52:05.432Z,6.40
2018-02-17T03:54:33.712Z,6.40
2018-02-17T03:57:01.971Z,6.40
2018-02-17T03:59:30.231Z,6.40
2018-02-17T04:01:58.430Z,6.40
2018-02-17T04:04:27.850Z,6.50
2018-02-17T04:06:56.930Z,6.50
2018-02-17T04:09:25.089Z,6.50
2018-02-17T04:11:53.448Z,6.50
2018-02-17T04:14:21.968Z,6.50
2018-02-17T04:16:50.949Z,6.40
2018-02-17T04:19:19.230Z,6.40
2018-02-17T04:21:47.487Z,6.40
2018-02-17T04:24:15.766Z,6.40
2018-02-17T04:26:43.946Z,6.40
2018-02-17T04:29:12.126Z,6.40
2018-02-17T04:31:40.165Z,6.40
2018-02-17T04:34:08.469Z,6.40
2018-02-17T04:36:36.844Z,6.30
2018-02-17T04:39:05.127Z,6.20
2018-02-17T04:41:34.244Z,6.30
2018-02-17T04:44:02.405Z,6.30
2018-02-17T04:46:36.764Z,6.30
2018-02-17T04:49:10.504Z,6.30
2018-02-17T04:51:53.624Z,6.30
2018-02-17T04:54:21.803Z,6.30
2018-02-17T04:57:07.683Z,6.20
2018-02-17T04:59:41.288Z,6.20
2018-02-17T05:02:11.723Z,6.20
2018-02-17T05:04:40.339Z,6.30
2018-02-17T05:07:09.041Z,6.30
2018-02-17T05:09:37.560Z,6.30
2018-02-17T05:12:05.939Z,6.30
2018-02-17T05:14:37.820Z,6.30
2018-02-17T05:17:09.519Z,6.20
2018-02-17T05:19:53.399Z,6.20
2018-02-17T05:22:22.498Z,6.20
2018-02-17T05:25:07.358Z,6.20
2018-02-17T05:27:35.857Z,6.20
2018-02-17T05:30:05.537Z,6.20
2018-02-17T05:32:49.496Z,6.20
2018-02-17T05:35:37.315Z,6.20
2018-02-17T05:38:05.556Z,6.20
2018-02-17T05:40:33.975Z,6.20
2018-02-17T05:43:02.134Z,6.20
2018-02-17T05:45:32.393Z,6.20
2018-02-17T05:48:00.634Z,6.20
2018-02-17T05:50:28.875Z,6.20
2018-02-17T05:52:57.092Z,6.20
2018-02-17T05:55:25.252Z,6.20
2018-02-17T05:57:53.552Z,6.20
2018-02-17T06:00:22.300Z,6.30
2018-02-17T06:02:50.553Z,6.30
2018-02-17T06:05:18.753Z,6.30
2018-02-17T06:07:47.252Z,6.40
2018-02-17T06:10:15.533Z,6.40
2018-02-17T06:12:43.612Z,6.40
2018-02-17T06:15:12.591Z,6.30
2018-02-17T06:17:40.852Z,6.30
2018-02-17T06:20:09.230Z,6.20
2018-02-17T06:22:37.512Z,6.30
2018-02-17T06:25:05.870Z,6.30
2018-02-17T06:27:34.170Z,6.30
2018-02-17T06:30:02.250Z,6.20
2018-02-17T06:32:31.332Z,6.30
2018-02-17T06:34:59.489Z,6.30
2018-02-17T06:37:27.888Z,6.30
2018-02-17T06:39:56.269Z,6.40
2018-02-17T06:42:25.149Z,6.30
2018-02-17T06:44:53.448Z,6.30
2018-02-17T06:47:22.451Z,6.40
2018-02-17T06:49:50.988Z,6.30
2018-02-17T06:52:19.148Z,6.40
2018-02-17T06:54:47.247Z,6.50
2018-02-17T06:57:15.657Z,6.50
2018-02-17T06:59:43.987Z,6.40
2018-02-17T07:02:13.972Z,6.40
2018-02-17T07:04:42.387Z,6.40
2018-02-17T07:07:10.546Z,6.40
2018-02-17T07:09:38.699Z,6.40
2018-02-17T07:12:07.026Z,6.40
2018-02-17T07:14:36.006Z,6.50
2018-02-17T07:17:04.027Z,6.50
2018-02-17T07:19:32.046Z,6.50
2018-02-17T07:22:00.528Z,6.50
2018-02-17T07:24:28.786Z,6.50
2018-02-17T07:26:56.986Z,6.50
2018-02-17T07:29:26.107Z,6.40
2018-02-17T07:31:54.226Z,6.40
2018-02-17T07:34:22.206Z,6.50
2018-02-17T07:36:50.267Z,6.50
2018-02-17T07:39:18.446Z,6.50
2018-02-17T07:41:46.509Z,6.60
2018-02-17T07:44:14.586Z,6.60
2018-02-17T07:46:42.985Z,6.60
2018-02-17T07:49:12.176Z,6.60
2018-02-17T07:51:41.329Z,6.60
2018-02-17T07:54:09.626Z,6.60
2018-02-17T07:56:37.906Z,6.50
2018-02-17T07:59:06.366Z,6.40
2018-02-17T08:01:34.866Z,6.40
2018-02-17T08:04:03.886Z,6.30
2018-02-17T08:06:33.046Z,6.40
2018-02-17T08:09:01.106Z,6.40
2018-02-17T08:11:29.266Z,6.50
2018-02-17T08:13:57.386Z,6.50
2018-02-17T08:16:26.667Z,6.60
2018-02-17T08:18:55.027Z,6.60
2018-02-17T08:21:23.126Z,6.70
2018-02-17T08:23:51.407Z,6.70
2018-02-17T08:26:19.410Z,6.70
2018-02-17T08:28:47.647Z,6.70
2018-02-17T08:31:16.027Z,6.70
2018-02-17T08:33:44.309Z,6.70
2018-02-17T08:36:13.407Z,6.70
2018-02-17T08:38:42.488Z,6.70
2018-02-17T08:41:10.647Z,6.70
2018-02-17T08:43:38.827Z,6.70
2018-02-17T08:46:07.008Z,6.80
2018-02-17T08:48:35.147Z,6.70
2018-02-17T08:51:03.688Z,6.80
2018-02-17T08:53:32.888Z,6.80
2018-02-17T08:56:01.147Z,6.80
2018-02-17T08:58:30.248Z,6.90
2018-02-17T09:00:59.509Z,6.90
2018-02-17T09:03:27.929Z,6.90
2018-02-17T09:05:56.966Z,6.90
2018-02-17T09:08:25.354Z,6.90
2018-02-17T09:10:53.755Z,6.80
2018-02-17T09:13:23.578Z,6.70
2018-02-17T09:15:52.869Z,6.80
2018-02-17T09:18:21.009Z,6.80
2018-02-17T09:20:49.108Z,6.80
2018-02-17T09:23:17.250Z,6.70
2018-02-17T09:25:45.350Z,6.70
2018-02-17T09:28:13.628Z,6.70
2018-02-17T09:30:41.892Z,6.80
2018-02-17T09:33:10.149Z,6.90
2018-02-17T09:35:38.488Z,6.80
2018-02-17T09:38:06.830Z,6.90
2018-02-17T09:40:35.029Z,6.90
2018-02-17T09:43:04.196Z,6.80
2018-02-17T09:45:32.777Z,6.80
2018-02-17T09:48:01.477Z,6.90
2018-02-17T09:50:30.656Z,6.90
2018-02-17T09:52:59.216Z,6.90
2018-02-17T09:55:27.396Z,7.00
2018-02-17T09:57:56.096Z,7.00
2018-02-17T10:00:24.476Z,7.00
2018-02-17T10:02:52.860Z,7.00
2018-02-17T10:05:21.159Z,7.00
2018-02-17T10:07:52.777Z,7.20
2018-02-17T10:10:20.856Z,7.20
2018-02-17T10:12:48.876Z,7.20
2018-02-17T10:15:17.087Z,7.30
2018-02-17T10:17:45.376Z,7.30
2018-02-17T10:20:14.377Z,7.30
2018-02-17T10:22:43.341Z,7.40
2018-02-17T10:25:11.436Z,7.40
2018-02-17T10:27:40.339Z,7.40
2018-02-17T10:30:09.316Z,7.30
2018-02-17T10:32:39.237Z,7.30
2018-02-17T10:35:08.116Z,7.30
2018-02-17T10:37:36.597Z,7.30
2018-02-17T10:40:05.077Z,7.30
2018-02-17T10:42:33.157Z,7.30
2018-02-17T10:45:01.319Z,7.30
2018-02-17T10:47:30.019Z,7.20
2018-02-17T10:49:59.318Z,8.20
2018-02-17T10:52:28.617Z,8.70
2018-02-17T10:54:57.700Z,8.60
2018-02-17T10:57:26.196Z,8.60
2018-02-17T10:59:55.481Z,8.00
2018-02-17T11:02:24.360Z,7.90
2018-02-17T11:04:52.758Z,7.90
2018-02-17T11:07:21.606Z,7.70
2018-02-17T11:09:49.967Z,7.70
2018-02-17T11:12:18.197Z,7.60
2018-02-17T11:14:47.287Z,7.40
2018-02-17T11:17:15.548Z,7.40
2018-02-17T11:19:43.707Z,7.30
2018-02-17T11:22:12.010Z,7.30
2018-02-17T11:24:40.387Z,7.40
2018-02-17T11:27:08.448Z,7.40
2018-02-17T11:29:36.687Z,7.40
2018-02-17T11:32:05.007Z,7.40
2018-02-17T11:34:33.538Z,7.40
2018-02-17T11:37:01.867Z,7.40
2018-02-17T11:39:30.030Z,7.40
2018-02-17T11:41:58.327Z,7.40
2018-02-17T11:44:27.309Z,7.20
2018-02-17T11:46:55.447Z,7.20
2018-02-17T11:49:23.648Z,7.20
2018-02-17T11:51:51.927Z,7.10
2018-02-17T11:54:20.328Z,7.00
2018-02-17T11:56:49.707Z,6.90
2018-02-17T11:59:17.927Z,6.90
2018-02-17T12:01:46.227Z,6.80
2018-02-17T12:04:14.543Z,6.80
2018-02-17T12:06:43.828Z,6.70
2018-02-17T12:09:12.347Z,6.70
2018-02-17T12:11:40.750Z,6.70
2018-02-17T12:14:09.168Z,6.70
2018-02-17T12:16:37.427Z,6.70
2018-02-17T12:19:05.827Z,6.70
2018-02-17T12:21:34.300Z,6.70
2018-02-17T12:24:03.002Z,6.70
2018-02-17T12:26:32.282Z,6.60
2018-02-17T12:29:00.861Z,6.60
2018-02-17T12:31:29.442Z,6.60
2018-02-17T12:33:58.480Z,6.70
2018-02-17T12:36:27.021Z,6.60
2018-02-17T12:38:55.340Z,6.60
2018-02-17T12:41:23.682Z,6.60
2018-02-17T12:43:51.842Z,6.60
2018-02-17T12:46:20.021Z,6.70
2018-02-17T12:48:48.462Z,6.80
2018-02-17T12:51:16.820Z,6.90
2018-02-17T12:53:44.921Z,7.00
2018-02-17T12:56:13.120Z,7.00
2018-02-17T12:58:41.901Z,7.00
2018-02-17T13:01:10.182Z,7.00
2018-02-17T13:03:38.561Z,7.00
2018-02-17T13:06:06.741Z,7.00
2018-02-17T13:08:35.124Z,6.90
2018-02-17T13:11:04.328Z,6.80
2018-02-17T13:13:33.677Z,6.90
2018-02-17T13:16:02.109Z,6.90
2018-02-17T13:18:31.309Z,6.80
2018-02-17T13:21:00.490Z,6.80
2018-02-17T13:23:28.810Z,6.80
2018-02-17T13:25:57.229Z,6.80
2018-02-17T13:28:25.750Z,6.80
2018-02-17T13:30:54.690Z,6.80
2018-02-17T13:33:22.989Z,6.80
2018-02-17T13:35:51.549Z,6.80
2018-02-17T13:38:19.950Z,6.80
2018-02-17T13:40:48.229Z,6.70
2018-02-17T13:43:16.710Z,6.70
2018-02-17T13:45:45.071Z,6.70
2018-02-17T13:48:13.577Z,6.80
2018-02-17T13:50:42.670Z,7.10
2018-02-17T13:53:11.049Z,7.10
2018-02-17T13:55:40.029Z,7.10
2018-02-17T13:58:08.433Z,7.10
2018-02-17T14:00:37.523Z,7.10
2018-02-17T14:03:06.489Z,7.10
2018-02-17T14:05:34.773Z,7.10
2018-02-17T14:08:02.953Z,7.10
2018-02-17T14:10:32.149Z,7.10
2018-02-17T14:13:00.310Z,7.10
2018-02-17T14:15:28.589Z,7.20
2018-02-17T14:17:57.071Z,7.30
2018-02-17T14:20:25.331Z,7.40
2018-02-17T14:22:53.930Z,7.30
2018-02-17T14:25:22.209Z,7.30
2018-02-17T14:27:50.612Z,7.30
2018-02-17T14:30:18.870Z,7.40
2018-02-17T14:32:48.152Z,7.40
2018-02-17T14:35:16.329Z,7.40
2018-02-17T14:37:44.511Z,7.40
2018-02-17T14:40:13.709Z,7.40
2018-02-17T14:42:42.890Z,7.50
2018-02-17T14:45:11.970Z,7.50
2018-02-17T14:47:40.149Z,7.50
2018-02-17T14:50:08.429Z,7.50
2018-02-17T14:52:36.669Z,7.50
2018-02-17T14:55:04.830Z,7.50
2018-02-17T14:57:33.170Z,7.50
2018-02-17T15:00:02.272Z,7.50
2018-02-17T15:02:31.333Z,7.40
2018-02-17T15:04:59.531Z,7.40
2018-02-17T15:07:27.810Z,7.40
2018-02-17T15:09:56.690Z,7.30
2018-02-17T15:12:25.170Z,7.30
2018-02-17T15:14:53.349Z,7.30
2018-02-17T15:17:21.611Z,7.30
2018-02-17T15:19:49.829Z,7.30
2018-02-17T15:22:18.069Z,7.40
2018-02-17T15:24:46.489Z,7.40
2018-02-17T15:27:14.911Z,7.40
2018-02-17T15:29:43.630Z,7.40
2018-02-17T15:32:12.849Z,7.40
2018-02-17T15:34:41.489Z,7.40
2018-02-17T15:37:09.957Z,7.30
2018-02-17T15:39:38.431Z,7.40
2018-02-17T15:42:06.849Z,7.20
2018-02-17T15:44:36.010Z,7.20
2018-02-17T15:47:05.112Z,7.20
2018-02-17T15:49:33.590Z,7.20
2018-02-17T15:52:02.010Z,7.20
2018-02-17T15:54:31.389Z,7.30
2018-02-17T15:56:59.610Z,7.30
2018-02-17T15:59:27.830Z,7.20
2018-02-17T16:01:56.274Z,7.20
2018-02-17T16:04:24.690Z,7.20
2018-02-17T16:06:53.570Z,7.20
2018-02-17T16:09:21.850Z,7.20
2018-02-17T16:11:50.231Z,7.20
2018-02-17T16:14:18.431Z,7.30
2018-02-17T16:16:47.610Z,7.20
2018-02-17T16:19:16.789Z,7.20
2018-02-17T16:21:45.090Z,7.10
2018-02-17T16:24:14.171Z,7.20
2018-02-17T16:26:42.371Z,7.20
2018-02-17T16:29:11.551Z,7.30
2018-02-17T16:31:40.831Z,7.30
2018-02-17T16:34:09.450Z,7.30
2018-02-17T16:36:38.031Z,7.30
2018-02-17T16:39:07.111Z,7.20
2018-02-17T16:41:36.291Z,7.20
2018-02-17T16:44:04.590Z,7.20
2018-02-17T16:46:33.691Z,7.20
2018-02-17T16:49:03.170Z,7.20
2018-02-17T16:51:31.410Z,7.20
2018-02-17T16:53:59.629Z,7.20
2018-02-17T16:56:28.810Z,7.10
2018-02-17T16:58:57.090Z,7.10
2018-02-17T17:01:26.291Z,7.10
2018-02-17T17:03:54.568Z,7.10
2018-02-17T17:06:22.831Z,7.10
2018-02-17T17:08:51.112Z,7.10
2018-02-17T17:11:19.411Z,7.10
2018-02-17T17:13:47.491Z,7.10
2018-02-17T17:16:15.710Z,7.20
2018-02-17T17:18:44.032Z,7.10
2018-02-17T17:21:13.090Z,7.00
2018-02-17T17:23:41.471Z,7.00
2018-02-17T17:26:09.650Z,7.00
2018-02-17T17:28:37.950Z,6.90
2018-02-17T17:31:07.011Z,6.80
2018-02-17T17:33:35.191Z,6.80
2018-02-17T17:36:03.670Z,6.80
2018-02-17T17:38:32.150Z,6.70
2018-02-17T17:41:00.512Z,6.70
2018-02-17T17:43:28.910Z,6.70
2018-02-17T17:45:57.590Z,6.70
2018-02-17T17:48:25.770Z,6.70
2018-02-17T17:50:54.211Z,6.60
2018-02-17T17:53:22.735Z,6.60
2018-02-17T17:55:50.990Z,6.60
2018-02-17T17:58:19.355Z,6.60
2018-02-17T18:00:47.773Z,6.50
2018-02-17T18:03:16.650Z,6.50
2018-02-17T18:05:44.910Z,6.50
2018-02-17T18:08:13.490Z,6.50
2018-02-17T18:10:41.710Z,6.50
2018-02-17T18:13:10.790Z,6.60
2018-02-17T18:15:40.070Z,6.50
2018-02-17T18:18:08.349Z,6.50
2018-02-17T18:20:36.650Z,6.50
2018-02-17T18:23:04.910Z,6.50
2018-02-17T18:25:33.430Z,6.40
2018-02-17T18:28:02.370Z,6.40
2018-02-17T18:30:31.471Z,6.40
2018-02-17T18:33:00.411Z,6.30
2018-02-17T18:35:28.632Z,6.20
2018-02-17T18:37:56.910Z,6.20
2018-02-17T18:40:25.290Z,6.20
2018-02-17T18:42:53.572Z,6.20
2018-02-17T18:45:22.731Z,6.20
2018-02-17T18:47:51.230Z,6.10
2018-02-17T18:50:20.271Z,6.10
2018-02-17T18:52:48.611Z,6.10
2018-02-17T18:55:17.371Z,6.00
2018-02-17T18:57:45.771Z,5.90
2018-02-17T19:00:14.471Z,5.80
2018-02-17T19:02:43.750Z,5.80
2018-02-17T19:05:12.031Z,5.70
2018-02-17T19:07:40.633Z,5.70
2018-02-17T19:10:10.130Z,5.70
2018-02-17T19:12:39.311Z,5.70
2018-02-17T19:15:07.830Z,5.70
2018-02-17T19:17:35.970Z,5.70
2018-02-17T19:20:04.331Z,5.60
2018-02-17T19:22:32.635Z,5.50
2018-02-17T19:25:01.690Z,5.50
2018-02-17T19:27:30.190Z,5.50
2018-02-17T19:29:58.471Z,5.40
2018-02-17T19:32:26.850Z,5.40
2018-02-17T19:34:55.130Z,5.40
2018-02-17T19:37:23.190Z,5.30
2018-02-17T19:39:51.271Z,5.40
2018-02-17T19:42:19.350Z,5.40
2018-02-17T19:44:48.530Z,5.30
2018-02-17T19:47:16.951Z,5.30
2018-02-17T19:49:45.190Z,5.20
2018-02-17T19:52:13.590Z,5.20
2018-02-17T19:54:43.230Z,5.20
2018-02-17T19:57:11.911Z,5.20
2018-02-17T19:59:40.350Z,5.20
2018-02-17T20:02:09.531Z,5.20
2018-02-17T20:04:38.230Z,5.10
2018-02-17T20:07:07.332Z,5.20
2018-02-17T20:09:36.830Z,5.20
2018-02-17T20:12:06.012Z,5.20
2018-02-17T20:14:34.271Z,5.20
2018-02-17T20:17:02.671Z,5.20
2018-02-17T20:19:30.932Z,5.20
2018-02-17T20:21:59.031Z,5.30
2018-02-17T20:24:28.210Z,5.30
2018-02-17T20:26:56.370Z,5.20
2018-02-17T20:29:24.830Z,5.30
2018-02-17T20:31:52.991Z,5.20
2018-02-17T20:34:21.352Z,5.00
2018-02-17T20:36:49.490Z,5.00
2018-02-17T20:39:17.672Z,5.00
2018-02-17T20:41:46.750Z,4.90
2018-02-17T20:44:14.930Z,4.90
2018-02-17T20:46:43.231Z,4.90
2018-02-17T20:49:11.570Z,4.90
2018-02-17T20:51:39.752Z,4.90
2018-02-17T20:54:08.130Z,4.90
2018-02-17T20:56:36.310Z,5.00
2018-02-17T20:59:04.490Z,5.00
2018-02-17T21:01:33.890Z,5.00
2018-02-17T21:04:02.871Z,5.00
2018-02-17T21:06:31.513Z,5.00
2018-02-17T21:08:59.770Z,5.00
2018-02-17T21:11:28.130Z,5.10
2018-02-17T21:13:57.191Z,5.10
2018-02-17T21:16:25.592Z,5.00
2018-02-17T21:18:54.490Z,5.10
2018-02-17T21:21:23.750Z,5.20
2018-02-17T21:23:52.231Z,5.10
2018-02-17T21:26:20.494Z,5.20
2018-02-17T21:28:48.791Z,5.20
2018-02-17T21:31:17.310Z,5.10
2018-02-17T21:33:46.470Z,5.00
2018-02-17T21:36:14.830Z,5.00
2018-02-17T21:38:43.753Z,4.90
2018-02-17T21:41:12.852Z,4.90
2018-02-17T21:43:42.051Z,4.90
2018-02-17T21:46:11.230Z,4.90
2018-02-17T21:48:39.630Z,4.90
2018-02-17T21:51:08.710Z,4.90
2018-02-17T21:53:36.790Z,4.90
2018-02-17T21:56:05.992Z,4.90
2018-02-17T21:58:35.112Z,4.90
2018-02-17T22:01:03.231Z,4.90
2018-02-17T22:03:31.510Z,5.00
2018-02-17T22:05:59.550Z,5.00
2018-02-17T22:08:27.870Z,5.00
2018-02-17T22:10:56.935Z,5.00
2018-02-17T22:13:25.450Z,5.00
2018-02-17T22:15:54.850Z,5.00
2018-02-17T22:18:24.170Z,5.00
2018-02-17T22:20:52.390Z,5.00
2018-02-17T22:23:20.430Z,5.00
2018-02-17T22:25:48.872Z,5.00
2018-02-17T22:28:18.175Z,5.00
2018-02-17T22:30:47.570Z,5.00
2018-02-17T22:33:16.650Z,5.00
2018-02-17T22:35:45.172Z,5.00
2018-02-17T22:38:13.252Z,5.00
2018-02-17T22:40:41.490Z,5.00
2018-02-17T22:43:09.730Z,5.00
2018-02-17T22:45:38.130Z,5.10
2018-02-17T22:48:06.311Z,5.00
2018-02-17T22:50:34.352Z,5.00
2018-02-17T22:53:02.871Z,5.00
2018-02-17T22:55:32.052Z,5.00
2018-02-17T22:58:00.130Z,5.00
2018-02-17T23:00:32.271Z,5.00
2018-02-17T23:03:00.672Z,5.00
2018-02-17T23:05:28.910Z,5.00
2018-02-17T23:07:57.111Z,5.00
2018-02-17T23:10:25.250Z,5.10
2018-02-17T23:12:53.350Z,5.00
2018-02-17T23:15:21.712Z,5.10
2018-02-17T23:17:49.770Z,5.10
2018-02-17T23:20:18.190Z,5.10
2018-02-17T23:22:46.690Z,5.10
2018-02-17T23:25:16.009Z,5.00
2018-02-17T23:27:45.170Z,5.10
2018-02-17T23:30:13.630Z,5.10
2018-02-17T23:32:41.771Z,5.10
2018-02-17T23:35:10.313Z,5.00
2018-02-17T23:37:39.612Z,5.00
2018-02-17T23:40:08.691Z,4.90
2018-02-17T23:42:36.971Z,4.90
2018-02-17T23:45:05.250Z,4.80
2018-02-17T23:47:33.636Z,4.90
2018-02-17T23:50:01.890Z,4.90
2018-02-17T23:52:30.475Z,5.00
2018-02-17T23:54:58.631Z,5.00
2018-02-17T23:57:26.836Z,5.00
2018-02-17T23:59:56.010Z,5.00
